Sweet Briar, VA (24595)

5:18 PM EDT en Septiembre 02, 2014 (GMT -0400)
Lakeview | Change Station
CLOSE
Current Station
Estación meteorológica personal
Location: Madison Heights, VA
Altura: 712 ft
Estaciones meteorológicas cercanas

Alt 712 ft 37.43 °N, 79.11 °W | Updated 11 seconds ago

Despejado
Despejado
88.7 ° F
Sensación térmica 96 ° F
N
6.0
Viento Variable Viento desde OSO
Gusts 7.0 mph

Hoy
Alta -- | Baja -- ° F
--% Posibilidad de precipitaciones
Ayer
Alta -- | Baja -- ° F
Precip. -- pul
6:47 AM 7:43 PM
Cuarto creciente, 55% visible
Presión 29.94 pul
Visibilidad 10.0 Millas
Nubes Despejado
Índice de calor 96 ° F
Punto de rocío 72 ° F
Humedad 59%
Precipitaciones 0.00 pul
Espesor de la nieve No disponible.
UV 4 de una escala de 12
Polen 10.50 de una escala de 12
Calidad del aire No disponible.
Flu Activity No disponible.
METAR KLYH 022054Z 21007KT 10SM CLR 31/21 A2997 RMK AO2 SLP137 T03110206 56021

More Conditions Fewer Conditions

Presión 29.94 pul
Visibilidad 10.0 Millas
Nubes Despejado
Índice de calor 96 ° F
Punto de rocío 72 ° F
Humedad 59%
Precipitaciones 0.00 pul
Espesor de la nieve No disponible.
UV 4 de una escala de 12
Polen 10.50 de una escala de 12
Calidad del aire No disponible.
Flu Activity No disponible.
METAR KLYH 022054Z 21007KT 10SM CLR 31/21 A2997 RMK AO2 SLP137 T03110206 56021

More Conditions Fewer Conditions

10-Day Weather Forecast

Almanac

Astronomía

Sep. 02, 2014 Salida Puesta
Hora real 6:47 AM EDT 7:43 PM EDT
Crepúsculo civil 6:20 AM EDT 8:10 PM EDT
Crepúsculo náutico 5:48 AM EDT 8:42 PM EDT
Crepúsculo astronómico 5:16 AM EDT 9:14 PM EDT
Luna 2:21 PM EDT Sin puesta de luna
Horas de luz 13h 49m
Horas de luz
12h 56m
Tomorrow will be 2m 20s shorter.
Cuarto creciente, 55% of the Moon is Illuminated
Hoy
Cuarto creciente
Sep 8
Luna llena
Sep 15
Cuarto menguante
Sep 24
Nueva
Oct 1
Cuarto creciente

Extremos de hoy

Máximos del estado Bajos del estado

Community

WunderPhotos

Upload Photos

1,749,769 ¡fotos cargadas!

Nearby

Grosos de nieve

Estación Profundido Altura
No tenemos constancia de nieve nueva.

Actividad de terremotos

Ciudad Distance Mag. Tiempo y dato
No hay informes recientes de la actividad sísmica.
Magnitud mínima muestra es 2,5.

Temperaturas de aguas costeras

Lugar Temperatura
Sin partes meteorológicos de las estaciones

Estaciones meteorológicas cercanas